^^
Station Historical Data
Daily Summary for March 11, 2017 Units:  Metric    English   Both
« Previous Day
Next Day »
Daily Weekly Monthly Yearly Custom
  High: Low: Average:
Temperature: 36.3 °C 25.3 °C 29.1 °C
Dew Point: 12.9 °C 5.2 °C 8.8 °C
Humidity: 38% 15% 29%
Wind Speed: 28.8km/h 0km/h 7.6km/h
Wind Gust: 35.4km/h - -
Wind- - SSE
Pressure: 1010 hPa 1004.6 hPa -
Precipitation: 0 mm    
Historical Graphs
 
 
Tabular Data for March 11, 2017
Time Temperature Dew Point Pressure Wind Wind Speed Wind Gust Humidity Rainfall Rate (Hourly) solar Conditions
00:06 30.8 °C 6.6 °C 1008 hPa SE 11.1 km/h 14.5 km/h 22% 0 mm 0.0 W/m2
00:17 30.1 °C 6 °C 1008 hPa SE 6.4 km/h 12.9 km/h 22% 0 mm 0.0 W/m2
00:26 29.6 °C 6.3 °C 1008 hPa SE 4.7 km/h 8 km/h 23% 0 mm 0.0 W/m2
00:31 29.4 °C 6.1 °C 1008 hPa SE 6.4 km/h 9.7 km/h 23% 0 mm 0.0 W/m2
00:36 29.2 °C 5.9 °C 1008 hPa SE 4.7 km/h 8 km/h 23% 0 mm 0.0 W/m2
00:41 29 °C 6.4 °C 1008 hPa SE 3.2 km/h 4.8 km/h 24% 0 mm 0.0 W/m2
00:46 28.7 °C 6.1 °C 1008.4 hPa SE 3.2 km/h 4.8 km/h 24% 0 mm 0.0 W/m2
00:51 28.4 °C 5.9 °C 1008.4 hPa Calm     24% 0 mm 0.0 W/m2
00:56 28.2 °C 6.3 °C 1008.4 hPa Calm     25% 0 mm 0.0 W/m2
01:01 28 °C 6.1 °C 1008.4 hPa Calm     25% 0 mm 0.0 W/m2
01:07 27.8 °C 6 °C 1008.4 hPa Calm     25% 0 mm 0.0 W/m2
01:12 27.5 °C 5.7 °C 1008.4 hPa Calm     25% 0 mm 0.0 W/m2
01:17 27.2 °C 6 °C 1008.4 hPa Calm     26% 0 mm 0.0 W/m2
01:22 26.9 °C 6.3 °C 1008.4 hPa Calm     27% 0 mm 0.0 W/m2
01:33 26.4 °C 6.4 °C 1008.4 hPa Calm     28% 0 mm 0.0 W/m2
01:38 26.3 °C 6.3 °C 1008 hPa Calm     28% 0 mm 0.0 W/m2
01:43 26.2 °C 6.2 °C 1008 hPa Calm     28% 0 mm 0.0 W/m2
01:48 26 °C 6.6 °C 1008 hPa Calm     29% 0 mm 0.0 W/m2
01:53 25.9 °C 6.5 °C 1008 hPa Calm     29% 0 mm 0.0 W/m2
01:58 25.9 °C 6.5 °C 1008 hPa Calm     29% 0 mm 0.0 W/m2
02:04 25.6 °C 6.2 °C 1008 hPa Calm     29% 0 mm 0.0 W/m2
02:09 25.4 °C 6.6 °C 1008 hPa Calm     30% 0 mm 0.0 W/m2
02:14 25.3 °C 6.5 °C 1008 hPa Calm     30% 0 mm 0.0 W/m2
02:19 25.3 °C 6 °C 1008 hPa Calm     29% 0 mm 0.0 W/m2
02:24 25.6 °C 6.2 °C 1008 hPa Calm     29% 0 mm 0.0 W/m2
02:30 25.7 °C 6.3 °C 1008 hPa Calm     29% 0 mm 0.0 W/m2
02:35 25.7 °C 5.8 °C 1007.7 hPa Calm     28% 0 mm 0.0 W/m2
02:40 25.8 °C 5.9 °C 1007.7 hPa Calm     28% 0 mm 0.0 W/m2
02:45 25.9 °C 6 °C 1007.7 hPa Calm     28% 0 mm 0.0 W/m2
02:50 26 °C 6.1 °C 1007.7 hPa Calm     28% 0 mm 0.0 W/m2
02:56 26 °C 6.6 °C 1007.7 hPa Calm     29% 0 mm 0.0 W/m2
03:01 26 °C 6.6 °C 1007.7 hPa Calm     29% 0 mm 0.0 W/m2
03:06 26.4 °C 7.9 °C 1007.7 hPa Calm     31% 0 mm 0.0 W/m2
03:11 27.1 °C 8.5 °C 1007.7 hPa SE 1.4 km/h 3.2 km/h 31% 0 mm 0.0 W/m2
03:21 27.8 °C 9.6 °C 1007.7 hPa SE 9.7 km/h 14.5 km/h 32% 0 mm 0.0 W/m2
03:31 28.1 °C 9.9 °C 1007.7 hPa ESE 9.7 km/h 12.9 km/h 32% 0 mm 0.0 W/m2
03:36 28.2 °C 9.9 °C 1007.7 hPa ESE 7.9 km/h 9.7 km/h 32% 0 mm 0.0 W/m2
03:41 28 °C 9.8 °C 1007.7 hPa Calm   9.7 km/h 32% 0 mm 0.0 W/m2
03:46 27.8 °C 10.1 °C 1007.7 hPa ESE 1.4 km/h 8 km/h 33% 0 mm 0.0 W/m2
03:52 27.6 °C 9.9 °C 1007.7 hPa ESE 3.2 km/h 6.4 km/h 33% 0 mm 0.0 W/m2
03:57 27.2 °C 10 °C 1007.7 hPa ESE 3.2 km/h 8 km/h 34% 0 mm 0.0 W/m2
04:02 27 °C 9.8 °C 1007.7 hPa ESE 3.2 km/h 8 km/h 34% 0 mm 0.0 W/m2
04:07 26.9 °C 10.1 °C 1007.7 hPa ESE 4.7 km/h 6.4 km/h 35% 0 mm 0.0 W/m2
04:12 26.7 °C 10 °C 1007.7 hPa Calm   6.4 km/h 35% 0 mm 0.0 W/m2
04:17 26.4 °C 9.7 °C 1007.7 hPa ESE 1.4 km/h 6.4 km/h 35% 0 mm 0.0 W/m2
04:22 26.4 °C 9.7 °C 1007.7 hPa ESE 3.2 km/h 9.7 km/h 35% 0 mm 0.0 W/m2
04:27 26.7 °C 10 °C 1007.7 hPa Calm     35% 0 mm 0.0 W/m2
04:37 26.2 °C 9.9 °C 1007.7 hPa Calm     36% 0 mm 0.0 W/m2
04:48 25.8 °C 10 °C 1007.7 hPa Calm     37% 0 mm 0.0 W/m2
04:53 25.7 °C 9.9 °C 1007.7 hPa Calm     37% 0 mm 0.0 W/m2
04:59 25.6 °C 10.2 °C 1007.7 hPa Calm     38% 0 mm 0.0 W/m2
05:04 25.6 °C 10.2 °C 1007.7 hPa Calm     38% 0 mm 0.0 W/m2
05:09 25.6 °C 10.2 °C 1007.7 hPa ESE 7.9 km/h 8 km/h 38% 0 mm 0.0 W/m2
05:15 25.7 °C 10.3 °C 1007.7 hPa ESE 6.4 km/h 8 km/h 38% 0 mm 0.0 W/m2
05:20 26.2 °C 10.8 °C 1007.7 hPa ESE 6.4 km/h 11.3 km/h 38% 0 mm 0.0 W/m2
05:25 26.6 °C 10.7 °C 1008 hPa Calm   11.3 km/h 37% 0 mm 0.0 W/m2
05:30 26.7 °C 10.8 °C 1008 hPa ESE 9.7 km/h 11.3 km/h 37% 0 mm 0.0 W/m2
05:35 26.8 °C 10.9 °C 1008 hPa ESE 3.2 km/h 8 km/h 37% 0 mm 0.0 W/m2
05:40 26.7 °C 10.4 °C 1008 hPa Calm   3.2 km/h 36% 0 mm 0.0 W/m2
05:45 26.5 °C 10.2 °C 1008 hPa ESE 6.4 km/h 11.3 km/h 36% 0 mm 0.0 W/m2
05:50 26.8 °C 10.5 °C 1008 hPa ESE 6.4 km/h 14.5 km/h 36% 0 mm 0.0 W/m2
05:56 27.2 °C 10.8 °C 1008 hPa ESE 6.4 km/h 9.7 km/h 36% 0 mm 0.0 W/m2
06:05 27.4 °C 11 °C 1008.4 hPa ESE 1.4 km/h 16.1 km/h 36% 0 mm 0.0 W/m2
06:10 27.4 °C 11 °C 1008.4 hPa ESE 14.3 km/h 16.1 km/h 36% 0 mm 0.0 W/m2
06:20 27.4 °C 11.4 °C 1008.4 hPa East 3.2 km/h 16.1 km/h 37% 0 mm 0.0 W/m2
06:31 27.3 °C 11.3 °C 1008.4 hPa ENE 6.4 km/h 16.1 km/h 37% 0 mm 0.0 W/m2
06:49 27.3 °C 11.7 °C 1008.4 hPa ENE 11.1 km/h 19.3 km/h 38% 0 mm 5.0 W/m2
06:54 27.3 °C 11.7 °C 1008.7 hPa NE 9.7 km/h 17.7 km/h 38% 0 mm 9.0 W/m2
07:09 27.3 °C 11.7 °C 1008.7 hPa NE 7.9 km/h 20.9 km/h 38% 0 mm 18.0 W/m2
07:19 27.4 °C 11.8 °C 1009 hPa NNE 11.1 km/h 19.3 km/h 38% 0 mm 33.0 W/m2
07:30 27.4 °C 11.8 °C 1009 hPa NNE 13 km/h 16.1 km/h 38% 0 mm 60.0 W/m2
07:39 27.6 °C 12 °C 1009 hPa NNE 17.7 km/h 22.5 km/h 38% 0 mm 91.0 W/m2
07:49 27.7 °C 11.7 °C 1009 hPa NNE 13 km/h 27.4 km/h 37% 0 mm 130.0 W/m2
07:58 27.9 °C 11.9 °C 1009.4 hPa NNE 11.1 km/h 24.1 km/h 37% 0 mm 174.0 W/m2
10:16 30.8 °C 12.7 °C 1010 hPa North 13 km/h 27.4 km/h 33% 0 mm 645.0 W/m2
10:24 30.7 °C 12.6 °C 1010 hPa NW 24.1 km/h 35.4 km/h 33% 0 mm 659.0 W/m2
10:29 31 °C 12.4 °C 1010 hPa North 16.3 km/h 24.1 km/h 32% 0 mm 671.0 W/m2
10:34 31.2 °C 12.5 °C 1010 hPa North 9.7 km/h 17.7 km/h 32% 0 mm 682.0 W/m2
10:36 31.2 °C 12.5 °C 1010 hPa NNW 28.8 km/h 29 km/h 32% 0 mm 698.0 W/m2
11:03 31.5 °C 12.8 °C 1009.7 hPa NNW 14.3 km/h 25.7 km/h 32% 0 mm 756.0 W/m2
11:08 31.5 °C 12.8 °C 1009.7 hPa NW 7.9 km/h 29 km/h 32% 0 mm 761.0 W/m2
11:19 31.9 °C 12.7 °C 1009.7 hPa NNW 13 km/h 32.2 km/h 31% 0 mm 782.0 W/m2
11:24 32.1 °C 12.8 °C 1009.7 hPa NNW 1.4 km/h 29 km/h 31% 0 mm 788.0 W/m2
11:26 32.2 °C 12.9 °C 1009.4 hPa North 14.3 km/h 24.1 km/h 31% 0 mm 798.0 W/m2
11:30 32.2 °C 12.9 °C 1009.4 hPa North 14.3 km/h 24.1 km/h 31% 0 mm 798.0 W/m2
11:35 32.3 °C 12.5 °C 1009.4 hPa North 9.7 km/h 29 km/h 30% 0 mm 805.0 W/m2
11:47 32.5 °C 12.7 °C 1009 hPa North 17.7 km/h 20.9 km/h 30% 0 mm 821.0 W/m2
11:51 33 °C 12.1 °C 1009 hPa NNW 9.7 km/h 22.5 km/h 28% 0 mm 833.0 W/m2
12:07 33.1 °C 12.1 °C 1009 hPa NNW 3.2 km/h 12.9 km/h 28% 0 mm 849.0 W/m2
12:15 33.4 °C 11.9 °C 1008.7 hPa Calm   25.7 km/h 27% 0 mm 860.0 W/m2
12:21 33.3 °C 12.3 °C 1008.7 hPa NNE 19.5 km/h 24.1 km/h 28% 0 mm 858.0 W/m2
12:30 33.8 °C 12.2 °C 1008.4 hPa NNW 19.5 km/h 22.5 km/h 27% 0 mm 868.0 W/m2
14:03 35.4 °C 10.4 °C 1007 hPa NNW 11.1 km/h 24.1 km/h 22% 0 mm 854.0 W/m2
14:12 35.4 °C 11.1 °C 1006.7 hPa NW 4.7 km/h 16.1 km/h 23% 0 mm 846.0 W/m2
14:17 35.7 °C 10.7 °C 1006.7 hPa ENE 6.4 km/h 12.9 km/h 22% 0 mm 840.0 W/m2
15:09 35.7 °C 8.5 °C 1006 hPa ENE 11.1 km/h 14.5 km/h 19% 0 mm 795.0 W/m2
15:45 36.1 °C 8 °C 1005.6 hPa SE 13 km/h 16.1 km/h 18% 0 mm 668.0 W/m2
15:55 35.9 °C 7.9 °C 1005.3 hPa SE 7.9 km/h 11.3 km/h 18% 0 mm 650.0 W/m2
17:19 36 °C 7.1 °C 1005 hPa Calm     17% 0 mm 79.0 W/m2
17:27 35.8 °C 7 °C 1004.6 hPa Calm     17% 0 mm 313.0 W/m2
17:33 35.8 °C 7 °C 1004.6 hPa Calm     17% 0 mm 306.0 W/m2
17:53 36.3 °C 6.5 °C 1004.6 hPa SE 9.7 km/h 16.1 km/h 16% 0 mm 160.0 W/m2
18:05 35.9 °C 5.2 °C 1004.6 hPa Calm     15% 0 mm 47.0 W/m2
18:22 35.5 °C 5.8 °C 1004.6 hPa Calm     16% 0 mm 49.0 W/m2
18:35 35.4 °C 5.8 °C 1004.6 hPa Calm     16% 0 mm 25.0 W/m2
18:50 35.2 °C 5.6 °C 1004.6 hPa Calm     16% 0 mm 12.0 W/m2
19:46 32.9 °C 7 °C 1005.6 hPa SSW 19.5 km/h 24.1 km/h 20% 0 mm 0.0 W/m2
19:59 32.4 °C 7.3 °C 1005.6 hPa SSW 22.7 km/h 27.4 km/h 21% 0 mm 0.0 W/m2
20:13 32 °C 6.9 °C 1005.6 hPa SSW 17.7 km/h 19.3 km/h 21% 0 mm 0.0 W/m2
20:26 31.6 °C 7.3 °C 1006 hPa SSW 13 km/h 17.7 km/h 22% 0 mm 0.0 W/m2
20:32 31.4 °C 7.1 °C 1006 hPa SSW 16.3 km/h 24.1 km/h 22% 0 mm 0.0 W/m2
20:39 31.3 °C 7 °C 1006.3 hPa SSW 20.9 km/h 24.1 km/h 22% 0 mm 0.0 W/m2
20:50 31.1 °C 7.5 °C 1006.3 hPa SSW 11.1 km/h 19.3 km/h 23% 0 mm 0.0 W/m2
21:00 30.8 °C 7.3 °C 1006.3 hPa SSW 13 km/h 16.1 km/h 23% 0 mm 0.0 W/m2
21:10 30.6 °C 7.7 °C 1006.7 hPa SSW 14.3 km/h 22.5 km/h 24% 0 mm 0.0 W/m2
21:34 29.9 °C 7.7 °C 1007 hPa SSW 16.3 km/h 20.9 km/h 25% 0 mm 0.0 W/m2
21:41 29.7 °C 7.6 °C 1007 hPa SSW 20.9 km/h 24.1 km/h 25% 0 mm 0.0 W/m2
21:52 29.5 °C 8 °C 1007 hPa SSW 14.3 km/h 19.3 km/h 26% 0 mm 0.0 W/m2
22:02 29.2 °C 7.7 °C 1007.3 hPa SSW 13 km/h 20.9 km/h 26% 0 mm 0.0 W/m2
22:11 28.9 °C 7.5 °C 1007.3 hPa SSW 13 km/h 17.7 km/h 26% 0 mm 0.0 W/m2
22:17 28.8 °C 7.9 °C 1007.3 hPa SSW 22.7 km/h 24.1 km/h 27% 0 mm 0.0 W/m2
22:22 28.8 °C 7.9 °C 1007.3 hPa SSW 20.9 km/h 22.5 km/h 27% 0 mm 0.0 W/m2
22:28 28.6 °C 7.8 °C 1007.3 hPa SSW 19.5 km/h 24.1 km/h 27% 0 mm 0.0 W/m2
22:36 28.3 °C 7.5 °C 1007.3 hPa SSW 16.3 km/h 20.9 km/h 27% 0 mm 0.0 W/m2
22:41 28.2 °C 7.4 °C 1007.3 hPa SSW 14.3 km/h 20.9 km/h 27% 0 mm 0.0 W/m2
22:51 28 °C 7.8 °C 1007.7 hPa SSW 13 km/h 17.7 km/h 28% 0 mm 0.0 W/m2
23:02 27.8 °C 7.6 °C 1007.7 hPa SSW 16.3 km/h 19.3 km/h 28% 0 mm 0.0 W/m2
23:12 27.7 °C 7.5 °C 1007.7 hPa SSW 13 km/h 17.7 km/h 28% 0 mm 0.0 W/m2
23:21 27.5 °C 6.8 °C 1008 hPa SSW 17.7 km/h 20.9 km/h 27% 0 mm 0.0 W/m2
23:26 27.4 °C 6.7 °C 1008 hPa SSW 16.3 km/h 17.7 km/h 27% 0 mm 0.0 W/m2
23:37 27.2 °C 7.1 °C 1007.7 hPa SSW 16.3 km/h 19.3 km/h 28% 0 mm 0.0 W/m2
23:47 27.1 °C 7 °C 1007.7 hPa SSW 14.3 km/h 19.3 km/h 28% 0 mm 0.0 W/m2
23:52 26.9 °C 6.8 °C 1007.7 hPa SSW 14.3 km/h 17.7 km/h 28% 0 mm 0.0 W/m2
Canyon Roadhouse, Fishriver Canyon, Namibia
Compliments of Weather Underground - 2.25 mb